createdAt,value
2018-12-19T00:04:10.358Z,4.50
2018-12-19T00:09:14.650Z,2.77
2018-12-19T00:14:18.906Z,3.90
2018-12-19T00:19:23.366Z,4.47
2018-12-19T00:24:27.847Z,3.17
2018-12-19T00:29:32.167Z,3.93
2018-12-19T00:34:36.706Z,3.05
2018-12-19T00:45:28.453Z,5.23
2018-12-19T00:50:32.940Z,8.10
2018-12-19T00:55:37.323Z,7.53
2018-12-19T01:00:41.683Z,9.50
2018-12-19T01:05:45.759Z,8.23
2018-12-19T01:10:50.038Z,9.43
2018-12-19T01:15:54.423Z,7.10
2018-12-19T01:20:58.720Z,8.77
2018-12-19T01:26:03.034Z,15.10
2018-12-19T01:31:07.314Z,6.37
2018-12-19T01:36:11.698Z,5.77
2018-12-19T01:41:15.988Z,6.47
2018-12-19T01:46:32.603Z,3.17
2018-12-19T01:51:36.998Z,5.67
2018-12-19T01:56:41.474Z,15.13
2018-12-19T02:01:55.707Z,20.37
2018-12-19T02:07:00.081Z,12.20
2018-12-19T02:12:04.401Z,7.67
2018-12-19T02:17:08.781Z,2.90
2018-12-19T02:22:13.000Z,7.83
2018-12-19T02:27:17.301Z,7.20
2018-12-19T02:32:21.673Z,11.77
2018-12-19T02:43:06.105Z,12.27
2018-12-19T02:48:10.666Z,8.83
2018-12-19T02:53:15.098Z,14.13
2018-12-19T02:58:19.421Z,11.23
2018-12-19T03:03:23.645Z,18.77
2018-12-19T03:08:27.861Z,13.10
2018-12-19T03:13:32.515Z,14.67
2018-12-19T03:18:36.665Z,16.10
2018-12-19T03:23:40.869Z,18.05
2018-12-19T03:28:45.135Z,15.73
2018-12-19T03:33:50.160Z,17.87
2018-12-19T03:38:54.478Z,14.77
2018-12-19T03:43:58.703Z,18.63
2018-12-19T03:49:03.059Z,18.20
2018-12-19T03:54:07.350Z,8.37
2018-12-19T03:59:11.456Z,6.97
2018-12-19T04:04:15.815Z,7.40
2018-12-19T04:09:20.132Z,12.47
2018-12-19T04:14:24.405Z,3.73
2018-12-19T04:19:28.778Z,6.97
2018-12-19T04:24:33.080Z,7.43
2018-12-19T04:29:37.792Z,5.73
2018-12-19T04:34:42.067Z,6.35
2018-12-19T04:39:46.216Z,3.35
2018-12-19T04:44:50.501Z,4.77
2018-12-19T04:49:54.766Z,3.30
2018-12-19T04:54:58.931Z,5.20
2018-12-19T05:05:21.246Z,11.00
2018-12-19T05:10:25.506Z,9.53
2018-12-19T05:15:29.863Z,7.93
2018-12-19T05:20:34.236Z,6.83
2018-12-19T05:25:38.441Z,6.47
2018-12-19T05:30:42.785Z,7.37
2018-12-19T05:35:47.018Z,8.10
2018-12-19T05:40:51.213Z,6.50
2018-12-19T05:45:55.466Z,6.70
2018-12-19T05:50:59.709Z,5.93
2018-12-19T05:56:04.031Z,9.90
2018-12-19T06:01:08.359Z,4.50
2018-12-19T06:06:12.701Z,7.03
2018-12-19T06:11:16.923Z,5.12
2018-12-19T06:16:21.396Z,4.37
2018-12-19T06:21:25.846Z,3.70
2018-12-19T06:26:30.151Z,4.43
2018-12-19T06:31:34.467Z,6.10
2018-12-19T06:36:38.786Z,5.17
2018-12-19T06:41:43.272Z,4.60
2018-12-19T06:46:47.567Z,5.27
2018-12-19T06:51:51.815Z,3.03
2018-12-19T06:56:56.261Z,5.47
2018-12-19T07:02:00.668Z,2.73
2018-12-19T07:07:05.121Z,6.67
2018-12-19T07:12:09.496Z,8.00
2018-12-19T07:17:13.886Z,3.27
2018-12-19T07:22:18.267Z,4.53
2018-12-19T07:27:22.541Z,8.40
2018-12-19T07:32:27.001Z,2.17
2018-12-19T07:37:31.318Z,5.00
2018-12-19T07:42:35.708Z,14.87
2018-12-19T07:47:40.069Z,5.60
2018-12-19T07:52:44.618Z,9.90
2018-12-19T07:57:48.909Z,4.62
2018-12-19T08:02:53.113Z,8.80
2018-12-19T08:07:57.397Z,11.53
2018-12-19T08:13:01.709Z,17.93
2018-12-19T08:18:06.008Z,11.30
2018-12-19T08:23:10.263Z,10.43
2018-12-19T08:28:14.513Z,8.27
2018-12-19T08:33:18.862Z,8.93
2018-12-19T08:38:23.064Z,6.77
2018-12-19T08:43:27.408Z,7.20
2018-12-19T08:48:31.728Z,3.23
2018-12-19T08:53:36.083Z,3.55
2018-12-19T08:58:40.243Z,5.80
2018-12-19T09:03:44.388Z,5.92
2018-12-19T09:08:48.663Z,5.07
2018-12-19T09:13:52.953Z,11.47
2018-12-19T09:18:57.203Z,8.43
2018-12-19T09:24:01.552Z,6.77
2018-12-19T09:29:05.832Z,3.87
2018-12-19T09:34:10.099Z,8.30
2018-12-19T09:39:14.443Z,8.43
2018-12-19T09:44:18.787Z,8.40
2018-12-19T09:49:23.028Z,10.40
2018-12-19T09:54:27.316Z,4.90
2018-12-19T09:59:31.537Z,8.43
2018-12-19T10:04:35.723Z,11.27
2018-12-19T10:09:39.997Z,7.87
2018-12-19T10:14:44.342Z,7.35
2018-12-19T10:25:32.897Z,9.73
2018-12-19T10:30:41.122Z,13.53
2018-12-19T10:35:45.430Z,10.85
2018-12-19T10:49:50.588Z,14.90
2018-12-19T10:54:55.615Z,7.87
2018-12-19T11:00:00.442Z,5.40
2018-12-19T11:05:05.452Z,11.07
2018-12-19T11:10:10.362Z,7.60
2018-12-19T11:15:15.842Z,4.37
2018-12-19T11:20:20.817Z,8.63
2018-12-19T11:25:25.652Z,2.60
2018-12-19T11:30:31.712Z,3.52
2018-12-19T11:35:36.540Z,2.20
2018-12-19T11:40:41.381Z,1.63
2018-12-19T11:45:46.117Z,5.87
2018-12-19T11:50:51.083Z,8.60
2018-12-19T11:55:55.962Z,8.60
2018-12-19T12:01:00.979Z,5.40
2018-12-19T12:06:05.834Z,11.77
2018-12-19T12:11:10.784Z,4.00
2018-12-19T12:16:15.747Z,11.00
2018-12-19T12:21:20.798Z,9.67
2018-12-19T12:26:25.630Z,2.43
2018-12-19T12:31:30.693Z,14.50
2018-12-19T12:36:35.638Z,3.50
2018-12-19T12:41:40.558Z,5.35
2018-12-19T12:46:45.271Z,11.57
2018-12-19T12:51:50.273Z,11.80
2018-12-19T12:56:55.179Z,7.40
2018-12-19T13:01:59.878Z,5.33
2018-12-19T13:07:04.627Z,4.80
2018-12-19T13:12:09.383Z,16.50
2018-12-19T13:17:14.337Z,12.07
2018-12-19T13:22:19.143Z,7.40
2018-12-19T13:27:24.100Z,9.33
2018-12-19T13:32:28.899Z,10.97
2018-12-19T13:37:33.809Z,7.57
2018-12-19T13:42:38.597Z,12.23
2018-12-19T13:47:43.372Z,12.65
2018-12-19T13:52:48.153Z,18.00
2018-12-19T13:57:52.878Z,7.23
2018-12-19T14:02:57.668Z,7.00
2018-12-19T14:08:02.334Z,10.73
2018-12-19T14:13:07.219Z,8.57
2018-12-19T14:18:11.973Z,13.23
2018-12-19T14:23:16.729Z,9.60
2018-12-19T14:28:21.588Z,8.40
2018-12-19T14:33:26.538Z,8.90
2018-12-19T14:38:32.423Z,2.08
2018-12-19T14:43:37.319Z,3.33
2018-12-19T14:48:42.078Z,6.93
2018-12-19T14:53:46.998Z,6.57
2018-12-19T14:58:52.373Z,8.73
2018-12-19T15:03:57.222Z,4.33
2018-12-19T15:09:02.124Z,5.03
2018-12-19T15:14:07.132Z,4.47
2018-12-19T15:19:11.958Z,10.37
2018-12-19T15:24:16.886Z,7.83
2018-12-19T15:29:21.827Z,9.20
2018-12-19T15:34:26.743Z,12.53
2018-12-19T15:39:32.701Z,12.03
2018-12-19T15:44:37.533Z,5.47
2018-12-19T15:55:20.807Z,13.38
2018-12-19T16:00:25.652Z,10.87
2018-12-19T16:05:30.562Z,16.53
2018-12-19T16:10:35.302Z,13.10
2018-12-19T16:15:40.247Z,13.40
2018-12-19T16:20:45.132Z,19.12
2018-12-19T16:25:50.182Z,11.80
2018-12-19T16:30:55.086Z,20.93
2018-12-19T16:35:59.927Z,6.83
2018-12-19T16:41:04.862Z,15.40
2018-12-19T16:46:09.702Z,12.80
2018-12-19T16:51:14.622Z,15.87
2018-12-19T16:56:19.566Z,15.30
2018-12-19T17:01:24.447Z,18.47
2018-12-19T17:06:29.282Z,21.77
2018-12-19T17:11:34.077Z,19.43
2018-12-19T17:16:39.057Z,16.00
2018-12-19T17:21:43.776Z,10.13
2018-12-19T17:26:48.402Z,16.27
2018-12-19T17:31:53.177Z,14.03
2018-12-19T17:36:57.868Z,19.20
2018-12-19T17:42:02.673Z,20.33
2018-12-19T17:47:07.624Z,19.83
2018-12-19T17:52:12.645Z,16.17
2018-12-19T17:57:17.505Z,26.23
2018-12-19T18:02:23.004Z,19.87
2018-12-19T18:07:28.144Z,17.10
2018-12-19T18:12:33.130Z,21.73
2018-12-19T18:17:38.021Z,22.80
2018-12-19T18:22:43.020Z,9.80
2018-12-19T18:27:47.837Z,2.63
2018-12-19T18:32:52.737Z,9.57
2018-12-19T18:37:57.517Z,12.37
2018-12-19T18:43:02.257Z,11.23
2018-12-19T18:48:07.200Z,9.20
2018-12-19T18:53:13.258Z,13.90
2018-12-19T18:58:18.484Z,12.07
2018-12-19T19:03:23.461Z,17.40
2018-12-19T19:08:28.388Z,16.67
2018-12-19T19:13:34.034Z,16.60
2018-12-19T19:18:38.926Z,18.27
2018-12-19T19:23:44.078Z,20.08
2018-12-19T19:28:48.938Z,14.73
2018-12-19T19:33:53.778Z,15.17
2018-12-19T19:38:58.800Z,17.30
2018-12-19T19:44:03.798Z,22.53
2018-12-19T19:49:08.711Z,7.83
2018-12-19T19:54:13.579Z,4.17
2018-12-19T19:59:18.619Z,3.70
2018-12-19T20:04:23.520Z,13.63
2018-12-19T20:09:28.179Z,13.17
2018-12-19T20:14:33.019Z,6.97
2018-12-19T20:19:37.980Z,8.80
2018-12-19T20:24:42.939Z,7.40
2018-12-19T20:29:47.981Z,10.00
2018-12-19T20:34:52.899Z,12.83
2018-12-19T20:39:58.671Z,15.90
2018-12-19T20:45:03.619Z,19.47
2018-12-19T20:50:09.343Z,13.75
2018-12-19T20:55:14.349Z,9.43
2018-12-19T21:00:19.573Z,12.20
2018-12-19T21:05:24.538Z,3.47
2018-12-19T21:10:29.521Z,4.47
2018-12-19T21:15:34.460Z,5.00
2018-12-19T21:20:39.418Z,8.80
2018-12-19T21:25:44.059Z,8.20
2018-12-19T21:30:48.792Z,14.68
2018-12-19T21:35:53.560Z,12.63
2018-12-19T21:40:58.480Z,8.67
2018-12-19T21:46:03.519Z,13.50
2018-12-19T21:51:08.658Z,15.03
2018-12-19T21:56:13.519Z,27.17
2018-12-19T22:01:18.549Z,22.10
2018-12-19T22:06:23.435Z,30.23
2018-12-19T22:11:28.479Z,16.73
2018-12-19T22:16:37.700Z,17.67
2018-12-19T22:21:42.559Z,28.35
2018-12-19T22:26:47.499Z,22.82
2018-12-19T22:31:52.476Z,18.20
2018-12-19T22:36:57.391Z,17.90
2018-12-19T22:42:02.454Z,20.33
2018-12-19T22:47:07.399Z,19.93
2018-12-19T22:52:12.338Z,16.63
2018-12-19T22:57:17.278Z,13.63
2018-12-19T23:02:26.298Z,17.57
2018-12-19T23:07:31.319Z,16.80
2018-12-19T23:12:36.364Z,14.80
2018-12-19T23:17:41.778Z,17.90
2018-12-19T23:22:46.918Z,27.87
2018-12-19T23:27:51.795Z,20.70
2018-12-19T23:32:56.938Z,17.27
2018-12-19T23:38:01.858Z,17.57
2018-12-19T23:43:06.849Z,15.23
2018-12-19T23:48:11.923Z,19.53
2018-12-19T23:53:16.718Z,14.80
2018-12-19T23:58:21.558Z,18.43
